createdAt,value
2022-10-06T00:02:25.236Z,0.95
2022-10-06T00:04:52.175Z,1.10
2022-10-06T00:07:19.027Z,1.58
2022-10-06T00:09:45.827Z,0.90
2022-10-06T00:12:12.689Z,0.80
2022-10-06T00:14:39.505Z,1.25
2022-10-06T00:17:06.387Z,1.15
2022-10-06T00:19:33.264Z,1.33
2022-10-06T00:22:00.099Z,1.25
2022-10-06T00:24:27.311Z,1.58
2022-10-06T00:26:54.191Z,1.50
2022-10-06T00:29:21.062Z,1.23
2022-10-06T00:31:47.861Z,1.48
2022-10-06T00:34:14.673Z,1.05
2022-10-06T00:36:41.485Z,0.80
2022-10-06T00:39:08.346Z,0.80
2022-10-06T00:41:35.326Z,0.98
2022-10-06T00:44:02.192Z,1.00
2022-10-06T00:46:47.574Z,1.05
2022-10-06T00:49:22.259Z,0.80
2022-10-06T00:51:54.771Z,0.98
2022-10-06T00:54:22.033Z,0.70
2022-10-06T00:56:49.156Z,1.17
2022-10-06T00:59:18.790Z,1.08
2022-10-06T01:02:03.502Z,0.73
2022-10-06T01:04:32.904Z,1.00
2022-10-06T01:07:00.699Z,0.55
2022-10-06T01:09:28.437Z,0.90
2022-10-06T01:11:57.990Z,0.63
2022-10-06T01:14:26.119Z,0.90
2022-10-06T01:17:12.146Z,1.00
2022-10-06T01:20:04.458Z,1.05
2022-10-06T01:22:33.837Z,1.05
2022-10-06T01:25:00.777Z,0.98
2022-10-06T01:27:29.874Z,1.10
2022-10-06T01:29:58.272Z,1.10
2022-10-06T01:32:27.203Z,1.13
2022-10-06T01:34:54.095Z,1.38
2022-10-06T01:37:20.887Z,1.15
2022-10-06T01:39:47.854Z,1.55
2022-10-06T01:42:14.965Z,1.27
2022-10-06T01:44:41.861Z,1.40
2022-10-06T01:47:08.852Z,1.27
2022-10-06T01:49:35.773Z,1.73
2022-10-06T01:52:03.056Z,2.03
2022-10-06T01:54:29.903Z,1.83
2022-10-06T01:56:57.128Z,1.55
2022-10-06T01:59:24.704Z,1.30
2022-10-06T02:01:52.069Z,1.33
2022-10-06T02:04:19.068Z,1.83
2022-10-06T02:06:45.988Z,1.50
2022-10-06T02:09:12.968Z,1.92
2022-10-06T02:11:39.835Z,1.52
2022-10-06T02:14:06.650Z,1.88
2022-10-06T02:16:33.844Z,3.03
2022-10-06T02:19:00.692Z,2.65
2022-10-06T02:21:27.572Z,2.95
2022-10-06T02:23:54.426Z,3.13
2022-10-06T02:26:21.375Z,2.17
2022-10-06T02:28:49.921Z,2.10
2022-10-06T02:31:17.547Z,2.53
2022-10-06T02:33:44.922Z,2.47
2022-10-06T02:36:16.309Z,2.42
2022-10-06T02:38:43.215Z,1.90
2022-10-06T02:41:11.179Z,1.88
2022-10-06T02:43:38.289Z,2.03
2022-10-06T02:46:08.576Z,2.63
2022-10-06T02:48:35.555Z,2.47
2022-10-06T02:51:07.978Z,1.80
2022-10-06T02:53:36.118Z,2.42
2022-10-06T02:56:08.857Z,1.92
2022-10-06T02:58:35.693Z,2.70
2022-10-06T03:01:04.633Z,3.33
2022-10-06T03:03:32.296Z,1.98
2022-10-06T03:06:01.094Z,4.15
2022-10-06T03:08:28.203Z,1.95
2022-10-06T03:11:06.735Z,2.17
2022-10-06T03:13:33.795Z,2.40
2022-10-06T03:16:00.694Z,2.17
2022-10-06T03:18:28.029Z,3.30
2022-10-06T03:21:00.640Z,2.42
2022-10-06T03:23:27.557Z,2.22
2022-10-06T03:25:57.883Z,2.92
2022-10-06T03:28:24.893Z,3.70
2022-10-06T03:30:52.350Z,2.03
2022-10-06T03:33:19.268Z,1.83
2022-10-06T03:35:46.103Z,3.35
2022-10-06T03:38:13.032Z,3.33
2022-10-06T03:40:40.004Z,2.20
2022-10-06T03:43:09.810Z,2.70
2022-10-06T03:45:36.698Z,1.90
2022-10-06T03:48:03.700Z,2.05
2022-10-06T03:50:30.642Z,2.30
2022-10-06T03:52:57.465Z,2.33
2022-10-06T03:55:24.340Z,1.98
2022-10-06T03:57:51.188Z,2.00
2022-10-06T04:00:18.100Z,2.35
2022-10-06T04:02:44.952Z,2.30
2022-10-06T04:05:11.909Z,2.70
2022-10-06T04:07:38.705Z,2.55
2022-10-06T04:10:06.214Z,2.95
2022-10-06T04:12:33.335Z,2.50
2022-10-06T04:15:00.375Z,2.58
2022-10-06T04:17:27.739Z,2.70
2022-10-06T04:19:54.611Z,2.10
2022-10-06T04:22:21.487Z,2.53
2022-10-06T04:24:48.315Z,2.50
2022-10-06T04:27:30.673Z,2.72
2022-10-06T04:29:58.520Z,2.43
2022-10-06T04:32:25.440Z,2.55
2022-10-06T04:34:52.301Z,3.55
2022-10-06T04:37:19.129Z,2.17
2022-10-06T04:39:46.012Z,2.92
2022-10-06T04:42:12.871Z,2.53
2022-10-06T04:44:39.720Z,2.25
2022-10-06T04:47:06.737Z,2.45
2022-10-06T04:49:33.685Z,2.55
2022-10-06T04:52:00.510Z,3.13
2022-10-06T04:54:32.713Z,2.33
2022-10-06T04:57:00.572Z,2.75
2022-10-06T04:59:47.327Z,2.60
2022-10-06T05:02:14.383Z,2.53
2022-10-06T05:04:41.286Z,3.00
2022-10-06T05:07:08.176Z,3.42
2022-10-06T05:09:35.266Z,2.83
2022-10-06T05:12:02.121Z,3.95
2022-10-06T05:14:29.092Z,3.00
2022-10-06T05:16:55.977Z,3.28
2022-10-06T05:19:22.885Z,2.78
2022-10-06T05:21:49.699Z,3.85
2022-10-06T05:24:16.657Z,3.25
2022-10-06T05:26:43.548Z,2.95
2022-10-06T05:29:10.472Z,3.30
2022-10-06T05:31:43.151Z,2.85
2022-10-06T05:34:10.132Z,3.85
2022-10-06T05:36:37.089Z,3.17
2022-10-06T05:39:05.150Z,2.45
2022-10-06T05:41:33.558Z,3.55
2022-10-06T05:44:00.690Z,3.33
2022-10-06T05:46:29.496Z,2.65
2022-10-06T05:49:00.364Z,2.92
2022-10-06T05:51:31.269Z,3.53
2022-10-06T05:53:59.298Z,4.80
2022-10-06T05:56:36.971Z,4.32
2022-10-06T05:59:04.588Z,3.15
2022-10-06T06:01:35.081Z,3.22
2022-10-06T06:04:03.964Z,3.67
2022-10-06T06:06:32.836Z,3.65
2022-10-06T06:09:20.543Z,3.38
2022-10-06T06:11:49.169Z,3.42
2022-10-06T06:14:19.297Z,4.20
2022-10-06T06:16:46.647Z,2.97
2022-10-06T06:19:14.489Z,3.97
2022-10-06T06:21:41.515Z,3.40
2022-10-06T06:24:08.736Z,3.30
2022-10-06T06:26:37.585Z,3.10
2022-10-06T06:29:06.339Z,2.92
2022-10-06T06:31:36.120Z,3.78
2022-10-06T06:34:05.073Z,4.53
2022-10-06T06:36:36.997Z,3.97
2022-10-06T06:39:06.676Z,3.65
2022-10-06T06:41:38.016Z,3.75
2022-10-06T06:44:07.514Z,3.38
2022-10-06T06:49:06.663Z,4.53
2022-10-06T06:51:41.594Z,4.18
2022-10-06T06:54:09.893Z,3.47
2022-10-06T06:56:37.289Z,3.72
2022-10-06T06:59:09.077Z,3.50
2022-10-06T07:01:36.138Z,4.03
2022-10-06T07:04:03.297Z,4.30
2022-10-06T07:06:31.193Z,3.60
2022-10-06T07:08:59.629Z,3.03
2022-10-06T07:11:31.798Z,3.90
2022-10-06T07:14:01.441Z,3.43
2022-10-06T07:16:48.239Z,3.28
2022-10-06T07:19:36.890Z,4.20
2022-10-06T07:22:34.383Z,3.00
2022-10-06T07:25:12.698Z,3.50
2022-10-06T07:27:44.690Z,3.72
2022-10-06T07:30:18.065Z,4.63
2022-10-06T07:32:45.721Z,4.38
2022-10-06T07:35:13.142Z,3.72
2022-10-06T07:37:40.766Z,3.75
2022-10-06T07:40:08.849Z,3.90
2022-10-06T07:42:48.342Z,3.90
2022-10-06T07:45:37.911Z,2.88
2022-10-06T07:48:10.775Z,3.63
2022-10-06T07:50:41.658Z,3.72
2022-10-06T07:53:11.563Z,3.60
2022-10-06T07:55:40.156Z,4.03
2022-10-06T07:58:18.935Z,4.10
2022-10-06T08:00:48.755Z,3.65
2022-10-06T08:03:19.828Z,4.07
2022-10-06T08:05:57.264Z,4.20
2022-10-06T08:08:24.345Z,4.30
2022-10-06T08:10:55.776Z,3.88
2022-10-06T08:13:22.952Z,4.45
2022-10-06T08:15:50.414Z,3.83
2022-10-06T08:18:41.150Z,3.85
2022-10-06T08:21:16.896Z,3.15
2022-10-06T08:23:45.126Z,3.67
2022-10-06T08:26:13.310Z,3.38
2022-10-06T08:28:43.204Z,4.00
2022-10-06T08:31:13.347Z,3.47
2022-10-06T08:33:42.348Z,3.50
2022-10-06T08:36:14.586Z,3.60
2022-10-06T08:38:42.605Z,3.40
2022-10-06T08:41:40.179Z,4.03
2022-10-06T08:44:16.661Z,3.80
2022-10-06T08:47:11.747Z,3.20
2022-10-06T08:49:40.892Z,2.80
2022-10-06T08:52:31.060Z,3.85
2022-10-06T08:55:01.564Z,3.45
2022-10-06T08:57:55.542Z,3.33
2022-10-06T09:00:23.148Z,4.35
2022-10-06T09:02:50.631Z,4.07
2022-10-06T09:05:23.326Z,3.33
2022-10-06T09:08:16.421Z,3.65
2022-10-06T09:11:04.089Z,3.83
2022-10-06T09:13:54.055Z,3.60
2022-10-06T09:16:28.612Z,3.63
2022-10-06T09:19:09.338Z,3.00
2022-10-06T09:21:52.154Z,3.25
2022-10-06T09:24:25.074Z,2.33
2022-10-06T09:26:52.337Z,2.80
2022-10-06T09:29:19.262Z,3.47
2022-10-06T09:31:51.189Z,3.20
2022-10-06T09:34:37.598Z,3.03
2022-10-06T09:37:07.936Z,3.55
2022-10-06T09:39:39.472Z,2.40
2022-10-06T09:42:27.075Z,3.13
2022-10-06T09:44:56.249Z,3.45
2022-10-06T09:47:29.079Z,2.72
2022-10-06T09:50:21.610Z,3.30
2022-10-06T09:53:00.824Z,3.28
2022-10-06T09:55:31.108Z,3.08
2022-10-06T09:57:58.158Z,2.30
2022-10-06T10:00:30.267Z,3.75
2022-10-06T10:03:08.517Z,2.17
2022-10-06T10:05:38.725Z,2.83
2022-10-06T10:08:13.083Z,2.83
2022-10-06T10:10:40.273Z,3.50
2022-10-06T10:13:21.611Z,2.97
2022-10-06T10:16:00.597Z,3.00
2022-10-06T10:18:30.370Z,2.67
2022-10-06T10:21:06.202Z,2.35
2022-10-06T10:23:42.739Z,2.13
2022-10-06T10:26:40.762Z,2.65
2022-10-06T10:29:15.205Z,2.85
2022-10-06T10:32:15.398Z,3.17
2022-10-06T10:34:50.395Z,2.22
2022-10-06T10:37:25.557Z,2.60
2022-10-06T10:40:03.496Z,3.22
2022-10-06T10:42:57.135Z,2.53
2022-10-06T10:45:35.352Z,3.17
2022-10-06T10:48:12.270Z,3.17
2022-10-06T10:50:54.183Z,2.47
2022-10-06T10:53:47.623Z,2.70
2022-10-06T10:58:43.897Z,2.55
2022-10-06T11:01:39.614Z,2.50
2022-10-06T11:04:11.003Z,3.30
2022-10-06T11:07:02.485Z,2.80
2022-10-06T11:09:40.231Z,2.58
2022-10-06T11:12:52.164Z,2.67
2022-10-06T11:15:31.795Z,2.70
2022-10-06T11:18:19.468Z,2.63
2022-10-06T11:20:53.483Z,2.22
2022-10-06T11:23:44.935Z,2.65
2022-10-06T11:26:41.099Z,2.40
2022-10-06T11:29:19.281Z,3.72
2022-10-06T11:31:59.574Z,2.53
2022-10-06T11:34:26.574Z,3.10
2022-10-06T11:37:04.773Z,3.00
2022-10-06T11:39:44.836Z,2.08
2022-10-06T11:45:13.980Z,2.63
2022-10-06T11:48:11.073Z,2.90
2022-10-06T11:50:41.921Z,2.28
2022-10-06T11:53:27.871Z,2.13
2022-10-06T11:56:19.080Z,2.20
2022-10-06T11:58:51.986Z,2.35
2022-10-06T12:01:31.438Z,2.00
2022-10-06T12:04:10.199Z,2.42
2022-10-06T12:06:46.212Z,2.67
2022-10-06T12:09:28.525Z,2.75
2022-10-06T12:11:56.485Z,2.17
2022-10-06T12:17:49.236Z,2.17
2022-10-06T12:20:45.144Z,2.05
2022-10-06T12:23:22.740Z,2.40
2022-10-06T12:25:57.908Z,2.75
2022-10-06T12:28:50.862Z,2.15
2022-10-06T12:31:37.600Z,2.22
2022-10-06T12:34:04.839Z,2.30
2022-10-06T12:36:32.466Z,2.10
2022-10-06T12:39:06.821Z,1.95
2022-10-06T12:41:59.475Z,2.33
2022-10-06T12:44:34.326Z,1.80
2022-10-06T12:47:04.154Z,2.20
2022-10-06T12:49:40.227Z,2.28
2022-10-06T12:52:15.847Z,2.08
2022-10-06T12:54:50.864Z,2.00
2022-10-06T12:57:20.144Z,1.95
2022-10-06T12:59:49.462Z,2.38
2022-10-06T13:02:28.946Z,2.47
2022-10-06T13:05:03.220Z,2.50
2022-10-06T13:07:33.086Z,2.67
2022-10-06T13:10:15.348Z,2.17
2022-10-06T13:12:52.086Z,1.70
2022-10-06T13:15:25.412Z,1.80
2022-10-06T13:18:12.506Z,2.13
2022-10-06T13:20:59.225Z,1.83
2022-10-06T13:23:37.332Z,1.70
2022-10-06T13:26:07.000Z,2.53
2022-10-06T13:28:36.770Z,2.53
2022-10-06T13:31:17.314Z,2.03
2022-10-06T13:33:45.996Z,2.53
2022-10-06T13:36:17.359Z,1.70
2022-10-06T13:38:45.735Z,1.75
2022-10-06T13:41:20.488Z,2.35
2022-10-06T13:43:54.799Z,2.13
2022-10-06T13:46:26.910Z,2.05
2022-10-06T13:48:58.996Z,1.97
2022-10-06T13:51:30.231Z,1.95
2022-10-06T13:54:02.193Z,2.30
2022-10-06T13:56:35.723Z,2.38
2022-10-06T13:59:27.833Z,1.50
2022-10-06T14:01:55.961Z,2.42
2022-10-06T14:04:23.595Z,2.28
2022-10-06T14:06:58.996Z,2.13
2022-10-06T14:09:33.237Z,2.35
2022-10-06T14:12:15.732Z,2.10
2022-10-06T14:14:47.668Z,1.55
2022-10-06T14:17:32.613Z,1.65
2022-10-06T14:19:59.708Z,1.98
2022-10-06T14:22:35.527Z,2.63
2022-10-06T14:25:02.966Z,2.15
2022-10-06T14:27:29.922Z,2.22
2022-10-06T14:29:57.284Z,2.20
2022-10-06T14:32:26.530Z,1.30
2022-10-06T14:34:53.535Z,2.00
2022-10-06T14:37:20.447Z,1.75
2022-10-06T14:39:47.573Z,2.17
2022-10-06T14:42:17.487Z,1.63
2022-10-06T14:44:44.945Z,2.30
2022-10-06T14:47:13.077Z,2.00
2022-10-06T14:49:40.834Z,1.92
2022-10-06T14:52:10.554Z,2.20
2022-10-06T14:54:37.999Z,1.90
2022-10-06T14:57:05.008Z,1.55
2022-10-06T14:59:32.235Z,1.88
2022-10-06T15:01:59.184Z,1.63
2022-10-06T15:04:27.811Z,1.80
2022-10-06T15:07:13.354Z,1.92
2022-10-06T15:09:40.257Z,2.15
2022-10-06T15:12:07.289Z,2.20
2022-10-06T15:14:39.535Z,1.30
2022-10-06T15:17:06.622Z,1.63
2022-10-06T15:19:34.269Z,2.00
2022-10-06T15:22:01.210Z,1.75
2022-10-06T15:24:28.076Z,2.15
2022-10-06T15:27:13.462Z,1.77
2022-10-06T15:29:40.287Z,2.13
2022-10-06T15:32:07.351Z,2.13
2022-10-06T15:34:36.882Z,2.08
2022-10-06T15:37:04.650Z,1.85
2022-10-06T15:39:34.541Z,1.70
2022-10-06T15:42:01.693Z,1.95
2022-10-06T15:44:32.023Z,1.75
2022-10-06T15:46:59.261Z,1.75
2022-10-06T15:49:29.775Z,1.98
2022-10-06T15:51:59.420Z,2.15
2022-10-06T15:54:28.650Z,2.28
2022-10-06T15:57:00.498Z,2.25
2022-10-06T15:59:29.128Z,2.88
2022-10-06T16:02:00.258Z,2.03
2022-10-06T16:04:37.983Z,1.92
2022-10-06T16:07:15.717Z,2.58
2022-10-06T16:09:44.744Z,6.30
2022-10-06T16:12:16.380Z,3.67
2022-10-06T16:14:43.907Z,3.05
2022-10-06T16:17:11.882Z,2.72
2022-10-06T16:19:40.195Z,2.95
2022-10-06T16:22:08.744Z,1.60
2022-10-06T16:24:35.608Z,1.88
2022-10-06T16:27:02.975Z,2.40
2022-10-06T16:29:30.465Z,1.95
2022-10-06T16:31:57.999Z,1.55
2022-10-06T16:34:25.605Z,2.28
2022-10-06T16:36:52.654Z,2.05
2022-10-06T16:39:21.580Z,1.83
2022-10-06T16:41:49.152Z,2.30
2022-10-06T16:44:16.591Z,2.33
2022-10-06T16:46:44.042Z,2.38
2022-10-06T16:49:11.100Z,1.67
2022-10-06T16:51:46.210Z,1.70
2022-10-06T16:54:15.051Z,1.88
2022-10-06T16:56:44.194Z,1.98
2022-10-06T16:59:18.832Z,2.10
2022-10-06T17:01:46.648Z,2.33
2022-10-06T17:04:24.429Z,2.75
2022-10-06T17:06:55.938Z,2.47
2022-10-06T17:09:24.743Z,2.75
2022-10-06T17:11:56.699Z,5.32
2022-10-06T17:14:24.238Z,8.32
2022-10-06T17:16:52.723Z,7.05
2022-10-06T17:19:21.464Z,2.85
2022-10-06T17:21:52.766Z,2.22
2022-10-06T17:24:25.596Z,2.70
2022-10-06T17:26:52.935Z,2.60
2022-10-06T17:29:21.732Z,2.70
2022-10-06T17:31:50.658Z,2.53
2022-10-06T17:34:21.873Z,5.30
2022-10-06T17:36:51.423Z,6.93
2022-10-06T17:39:20.543Z,4.55
2022-10-06T17:41:50.371Z,3.97
2022-10-06T17:44:21.372Z,4.18
2022-10-06T17:46:50.667Z,3.67
2022-10-06T17:49:22.293Z,3.42
2022-10-06T17:51:50.353Z,4.22
2022-10-06T17:54:20.770Z,3.97
2022-10-06T17:56:49.770Z,3.63
2022-10-06T17:59:19.389Z,2.97
2022-10-06T18:01:46.262Z,3.33
2022-10-06T18:04:17.031Z,4.85
2022-10-06T18:06:46.182Z,4.10
2022-10-06T18:09:13.733Z,2.78
2022-10-06T18:11:48.493Z,2.40
2022-10-06T18:14:17.562Z,2.92
2022-10-06T18:16:55.799Z,3.83
2022-10-06T18:19:30.546Z,3.65
2022-10-06T18:22:00.321Z,2.40
2022-10-06T18:24:28.804Z,3.00
2022-10-06T18:26:57.477Z,2.17
2022-10-06T18:29:28.989Z,1.33
2022-10-06T18:32:01.360Z,2.17
2022-10-06T18:37:23.458Z,2.78
2022-10-06T18:39:50.303Z,3.25
2022-10-06T18:42:17.775Z,2.80
2022-10-06T18:45:03.389Z,2.92
2022-10-06T18:47:48.768Z,2.95
2022-10-06T18:50:16.807Z,3.22
2022-10-06T18:52:43.661Z,2.85
2022-10-06T18:55:10.537Z,3.35
2022-10-06T18:57:37.742Z,4.07
2022-10-06T19:00:05.156Z,4.25
2022-10-06T19:02:32.355Z,3.70
2022-10-06T19:04:59.307Z,3.45
2022-10-06T19:07:30.676Z,3.42
2022-10-06T19:09:57.531Z,3.20
2022-10-06T19:12:24.404Z,4.28
2022-10-06T19:14:51.346Z,4.30
2022-10-06T19:17:18.227Z,4.53
2022-10-06T19:19:51.335Z,3.55
2022-10-06T19:22:19.984Z,3.40
2022-10-06T19:24:48.686Z,3.47
2022-10-06T19:27:20.715Z,3.53
2022-10-06T19:29:54.588Z,4.85
2022-10-06T19:32:24.656Z,4.70
2022-10-06T19:34:51.647Z,5.40
2022-10-06T19:37:18.771Z,5.80
2022-10-06T19:39:48.165Z,6.65
2022-10-06T19:42:35.333Z,4.97
2022-10-06T19:45:03.475Z,4.40
2022-10-06T19:47:30.358Z,4.47
2022-10-06T19:50:02.049Z,3.90
2022-10-06T19:52:31.370Z,4.18
2022-10-06T19:54:58.712Z,3.67
2022-10-06T19:57:29.269Z,4.55
2022-10-06T19:59:56.172Z,3.30
2022-10-06T20:02:23.432Z,3.83
2022-10-06T20:04:50.673Z,3.28
2022-10-06T20:07:21.605Z,3.90
2022-10-06T20:09:51.083Z,3.80
2022-10-06T20:12:22.247Z,3.63
2022-10-06T20:14:51.704Z,3.83
2022-10-06T20:17:18.588Z,4.13
2022-10-06T20:19:46.506Z,4.38
2022-10-06T20:22:13.694Z,4.57
2022-10-06T20:24:40.519Z,5.20
2022-10-06T20:27:07.403Z,4.00
2022-10-06T20:29:34.597Z,4.72
2022-10-06T20:32:01.450Z,3.80
2022-10-06T20:34:32.467Z,4.38
2022-10-06T20:37:04.141Z,3.95
2022-10-06T20:39:53.261Z,4.38
2022-10-06T20:42:21.105Z,4.50
2022-10-06T20:44:48.000Z,3.70
2022-10-06T20:47:16.668Z,4.13
2022-10-06T20:49:43.969Z,4.80
2022-10-06T20:52:14.347Z,4.38
2022-10-06T20:54:41.637Z,3.53
2022-10-06T20:57:09.670Z,4.13
2022-10-06T20:59:37.435Z,4.93
2022-10-06T21:02:05.443Z,5.10
2022-10-06T21:04:32.836Z,5.10
2022-10-06T21:06:59.932Z,5.63
2022-10-06T21:09:28.702Z,5.82
2022-10-06T21:11:57.556Z,5.55
2022-10-06T21:14:24.804Z,5.25
2022-10-06T21:16:52.418Z,4.30
2022-10-06T21:19:21.902Z,4.30
2022-10-06T21:21:53.606Z,4.53
2022-10-06T21:24:20.980Z,4.50
2022-10-06T21:26:48.209Z,5.15
2022-10-06T21:29:16.003Z,5.93
2022-10-06T21:31:44.411Z,4.22
2022-10-06T21:34:11.735Z,5.63
2022-10-06T21:36:38.884Z,4.25
2022-10-06T21:39:06.837Z,4.07
2022-10-06T21:41:40.671Z,5.22
2022-10-06T21:44:13.228Z,4.90
2022-10-06T21:46:50.464Z,4.63
2022-10-06T21:49:22.326Z,5.05
2022-10-06T21:51:51.054Z,4.55
2022-10-06T21:54:19.058Z,4.68
2022-10-06T21:56:46.190Z,5.07
2022-10-06T21:59:13.811Z,5.47
2022-10-06T22:01:43.266Z,4.93
2022-10-06T22:04:12.954Z,5.10
2022-10-06T22:06:40.445Z,4.07
2022-10-06T22:09:09.527Z,4.72
2022-10-06T22:11:38.803Z,5.00
2022-10-06T22:14:08.753Z,4.85
2022-10-06T22:16:37.078Z,4.95
2022-10-06T22:19:06.372Z,4.38
2022-10-06T22:21:35.994Z,4.72
2022-10-06T22:24:10.361Z,5.85
2022-10-06T22:26:39.461Z,5.22
2022-10-06T22:29:12.122Z,4.53
2022-10-06T22:31:42.183Z,4.65
2022-10-06T22:34:11.524Z,4.35
2022-10-06T22:36:39.118Z,4.85
2022-10-06T22:39:06.253Z,4.25
2022-10-06T22:41:33.390Z,4.28
2022-10-06T22:44:00.559Z,5.13
2022-10-06T22:46:29.706Z,4.53
2022-10-06T22:48:58.534Z,4.60
2022-10-06T22:51:25.718Z,5.20
2022-10-06T22:53:58.555Z,3.97
2022-10-06T22:59:00.377Z,4.28
2022-10-06T23:01:29.152Z,4.20
2022-10-06T23:03:56.340Z,4.68
2022-10-06T23:06:25.189Z,4.40
2022-10-06T23:08:53.645Z,4.95
2022-10-06T23:11:21.879Z,5.13
2022-10-06T23:13:50.789Z,4.97
2022-10-06T23:16:19.531Z,4.65
2022-10-06T23:18:47.051Z,4.38
2022-10-06T23:21:22.387Z,5.13
2022-10-06T23:23:51.764Z,4.35
2022-10-06T23:26:20.622Z,4.18
2022-10-06T23:28:55.072Z,5.70
2022-10-06T23:31:22.309Z,4.57
2022-10-06T23:33:50.959Z,4.63
2022-10-06T23:36:18.546Z,4.40
2022-10-06T23:38:46.190Z,4.43
2022-10-06T23:41:13.864Z,4.25
2022-10-06T23:43:41.264Z,5.05
2022-10-06T23:46:08.584Z,4.07
2022-10-06T23:48:37.684Z,4.60
2022-10-06T23:51:07.540Z,4.22
2022-10-06T23:53:35.020Z,4.88
2022-10-06T23:56:02.132Z,4.40
2022-10-06T23:58:29.365Z,4.53
